createdAt,value
2023-03-11T00:00:22.466Z,8.00
2023-03-11T00:02:51.393Z,7.80
2023-03-11T00:05:21.932Z,8.53
2023-03-11T00:07:48.703Z,7.37
2023-03-11T00:10:27.974Z,6.63
2023-03-11T00:12:56.242Z,6.23
2023-03-11T00:15:23.048Z,7.37
2023-03-11T00:17:50.186Z,4.87
2023-03-11T00:20:23.789Z,5.43
2023-03-11T00:22:54.074Z,4.73
2023-03-11T00:25:24.374Z,3.87
2023-03-11T00:27:51.226Z,3.90
2023-03-11T00:30:19.674Z,3.63
2023-03-11T00:32:48.975Z,3.83
2023-03-11T00:35:19.301Z,3.60
2023-03-11T00:37:48.438Z,3.60
2023-03-11T00:40:18.293Z,3.37
2023-03-11T00:42:45.907Z,3.53
2023-03-11T00:45:13.791Z,4.10
2023-03-11T00:47:40.587Z,3.67
2023-03-11T00:50:09.497Z,3.30
2023-03-11T00:52:36.456Z,3.90
2023-03-11T00:55:03.280Z,3.40
2023-03-11T00:57:29.811Z,3.47
2023-03-11T00:59:56.381Z,3.13
2023-03-11T01:02:23.513Z,2.73
2023-03-11T01:04:55.446Z,2.53
2023-03-11T01:07:23.412Z,2.20
2023-03-11T01:09:50.051Z,2.03
2023-03-11T01:12:16.668Z,2.10
2023-03-11T01:14:43.461Z,1.63
2023-03-11T01:17:10.420Z,1.80
2023-03-11T01:19:37.435Z,1.70
2023-03-11T01:22:04.254Z,2.00
2023-03-11T01:24:31.262Z,1.90
2023-03-11T01:26:57.960Z,2.00
2023-03-11T01:29:24.604Z,1.83
2023-03-11T01:31:51.832Z,2.20
2023-03-11T01:34:19.517Z,2.33
2023-03-11T01:36:46.168Z,1.97
2023-03-11T01:39:12.965Z,2.33
2023-03-11T01:41:39.834Z,2.00
2023-03-11T01:44:07.083Z,2.30
2023-03-11T01:47:02.562Z,1.90
2023-03-11T01:49:29.424Z,1.57
2023-03-11T01:52:00.238Z,1.70
2023-03-11T01:54:37.538Z,1.73
2023-03-11T01:57:09.355Z,1.60
2023-03-11T01:59:43.892Z,1.67
2023-03-11T02:02:29.668Z,1.30
2023-03-11T02:04:57.416Z,1.70
2023-03-11T02:07:24.268Z,1.67
2023-03-11T02:09:51.003Z,2.00
2023-03-11T02:12:17.828Z,2.00
2023-03-11T02:14:48.800Z,2.10
2023-03-11T02:17:17.054Z,2.43
2023-03-11T02:19:52.730Z,2.27
2023-03-11T02:22:20.881Z,1.93
2023-03-11T02:25:24.610Z,2.27
2023-03-11T02:27:53.774Z,1.47
2023-03-11T02:30:23.517Z,1.53
2023-03-11T02:32:51.160Z,1.10
2023-03-11T02:35:18.594Z,0.93
2023-03-11T02:37:47.448Z,1.17
2023-03-11T02:40:23.242Z,1.30
2023-03-11T02:43:11.434Z,1.10
2023-03-11T02:45:40.043Z,1.00
2023-03-11T02:48:08.900Z,1.40
2023-03-11T02:50:37.143Z,1.00
2023-03-11T02:53:06.078Z,1.27
2023-03-11T02:55:33.683Z,1.40
2023-03-11T02:58:00.318Z,1.07
2023-03-11T03:00:27.789Z,1.20
2023-03-11T03:02:54.840Z,1.33
2023-03-11T03:05:22.386Z,1.00
2023-03-11T03:07:49.648Z,1.10
2023-03-11T03:10:17.292Z,1.40
2023-03-11T03:12:43.960Z,1.40
2023-03-11T03:15:11.919Z,1.40
2023-03-11T03:17:38.881Z,1.13
2023-03-11T03:20:11.244Z,1.13
2023-03-11T03:22:38.963Z,1.27
2023-03-11T03:25:06.105Z,1.23
2023-03-11T03:27:34.334Z,1.60
2023-03-11T03:30:01.246Z,1.17
2023-03-11T03:32:28.570Z,1.30
2023-03-11T03:34:58.909Z,1.40
2023-03-11T03:37:27.309Z,1.30
2023-03-11T03:39:54.828Z,1.20
2023-03-11T03:42:21.943Z,1.30
2023-03-11T03:44:48.555Z,1.30
2023-03-11T03:47:15.239Z,1.50
2023-03-11T03:49:41.961Z,1.83
2023-03-11T03:52:10.343Z,1.43
2023-03-11T03:54:37.530Z,1.50
2023-03-11T03:57:04.789Z,1.60
2023-03-11T03:59:31.485Z,1.50
2023-03-11T04:01:58.524Z,1.50
2023-03-11T04:04:25.325Z,1.90
2023-03-11T04:06:52.080Z,1.40
2023-03-11T04:09:19.204Z,1.37
2023-03-11T04:11:46.068Z,1.83
2023-03-11T04:14:12.775Z,2.23
2023-03-11T04:16:39.552Z,1.63
2023-03-11T04:19:06.254Z,1.80
2023-03-11T04:21:33.645Z,1.90
2023-03-11T04:24:00.290Z,2.00
2023-03-11T04:26:28.384Z,2.60
2023-03-11T04:28:55.020Z,2.57
2023-03-11T04:31:21.765Z,4.37
2023-03-11T04:33:48.374Z,2.30
2023-03-11T04:36:15.107Z,1.83
2023-03-11T04:38:42.162Z,2.20
2023-03-11T04:41:09.111Z,2.07
2023-03-11T04:43:35.785Z,2.43
2023-03-11T04:46:02.450Z,2.37
2023-03-11T04:48:29.261Z,2.83
2023-03-11T04:50:56.206Z,2.80
2023-03-11T04:53:24.329Z,2.70
2023-03-11T04:55:52.774Z,2.50
2023-03-11T04:58:20.234Z,2.40
2023-03-11T05:00:47.098Z,2.37
2023-03-11T05:03:13.789Z,2.33
2023-03-11T05:05:40.452Z,1.83
2023-03-11T05:08:07.434Z,2.20
2023-03-11T05:10:34.151Z,1.93
2023-03-11T05:13:00.965Z,2.10
2023-03-11T05:15:28.853Z,2.13
2023-03-11T05:17:55.496Z,1.87
2023-03-11T05:20:22.340Z,2.30
2023-03-11T05:22:49.244Z,1.93
2023-03-11T05:25:15.861Z,2.17
2023-03-11T05:27:42.546Z,2.07
2023-03-11T05:30:09.780Z,2.67
2023-03-11T05:32:36.393Z,2.80
2023-03-11T05:35:03.125Z,2.57
2023-03-11T05:37:31.967Z,2.90
2023-03-11T05:39:58.828Z,2.20
2023-03-11T05:42:25.541Z,2.27
2023-03-11T05:44:52.338Z,2.57
2023-03-11T05:47:19.505Z,2.30
2023-03-11T05:49:48.604Z,2.67
2023-03-11T05:52:15.430Z,2.57
2023-03-11T05:54:42.167Z,2.63
2023-03-11T05:57:08.856Z,3.50
2023-03-11T05:59:37.413Z,2.40
2023-03-11T06:02:04.195Z,2.57
2023-03-11T06:04:31.631Z,2.40
2023-03-11T06:06:58.355Z,2.80
2023-03-11T06:09:25.184Z,2.00
2023-03-11T06:11:52.056Z,2.47
2023-03-11T06:14:18.812Z,2.63
2023-03-11T06:16:45.524Z,2.90
2023-03-11T06:19:12.809Z,2.90
2023-03-11T06:21:39.816Z,3.40
2023-03-11T06:24:07.300Z,3.43
2023-03-11T06:26:34.009Z,3.10
2023-03-11T06:29:01.232Z,2.67
2023-03-11T06:31:30.014Z,2.57
2023-03-11T06:33:56.973Z,2.80
2023-03-11T06:36:23.924Z,2.63
2023-03-11T06:38:54.467Z,2.60
2023-03-11T06:41:21.629Z,1.73
2023-03-11T06:43:48.447Z,2.67
2023-03-11T06:46:23.492Z,2.37
2023-03-11T06:48:53.392Z,2.00
2023-03-11T06:51:21.459Z,2.53
2023-03-11T06:53:54.754Z,2.40
2023-03-11T06:56:22.868Z,2.47
2023-03-11T06:58:49.738Z,2.67
2023-03-11T07:01:25.529Z,2.63
2023-03-11T07:03:52.732Z,2.43
2023-03-11T07:06:24.086Z,2.83
2023-03-11T07:08:51.908Z,2.10
2023-03-11T07:11:21.845Z,2.10
2023-03-11T07:13:48.615Z,2.13
2023-03-11T07:16:18.526Z,1.93
2023-03-11T07:18:46.636Z,1.57
2023-03-11T07:21:19.991Z,1.70
2023-03-11T07:23:46.815Z,1.77
2023-03-11T07:26:16.540Z,1.87
2023-03-11T07:28:44.618Z,8.07
2023-03-11T07:31:17.468Z,20.07
2023-03-11T07:33:44.223Z,10.77
2023-03-11T07:36:14.085Z,7.43
2023-03-11T07:38:41.841Z,11.93
2023-03-11T07:41:11.133Z,5.30
2023-03-11T07:43:38.296Z,8.77
2023-03-11T07:46:06.627Z,8.27
2023-03-11T07:48:34.677Z,6.00
2023-03-11T07:51:18.120Z,6.90
2023-03-11T07:53:45.414Z,3.80
2023-03-11T07:56:13.682Z,3.67
2023-03-11T07:58:40.728Z,2.70
2023-03-11T08:01:19.521Z,1.90
2023-03-11T08:03:49.551Z,1.77
2023-03-11T08:06:19.081Z,1.60
2023-03-11T08:08:46.714Z,1.60
2023-03-11T08:11:14.144Z,1.10
2023-03-11T08:13:42.558Z,1.63
2023-03-11T08:16:11.352Z,1.33
2023-03-11T08:18:38.001Z,1.63
2023-03-11T08:21:05.803Z,1.60
2023-03-11T08:23:32.716Z,1.67
2023-03-11T08:26:03.222Z,1.40
2023-03-11T08:28:29.817Z,1.60
2023-03-11T08:30:57.523Z,1.33
2023-03-11T08:33:24.236Z,2.27
2023-03-11T08:35:50.999Z,1.83
2023-03-11T08:38:17.699Z,1.43
2023-03-11T08:40:44.288Z,1.63
2023-03-11T08:43:15.826Z,1.80
2023-03-11T08:45:43.072Z,1.53
2023-03-11T08:48:11.485Z,1.40
2023-03-11T08:50:52.809Z,1.27
2023-03-11T08:53:20.339Z,1.20
2023-03-11T08:55:46.937Z,1.77
2023-03-11T08:58:13.566Z,2.07
2023-03-11T09:00:40.254Z,1.40
2023-03-11T09:03:06.929Z,1.30
2023-03-11T09:05:33.818Z,1.30
2023-03-11T09:08:00.555Z,1.55
2023-03-11T09:10:27.180Z,1.20
2023-03-11T09:12:53.863Z,1.17
2023-03-11T09:15:20.720Z,1.70
2023-03-11T09:17:47.574Z,1.30
2023-03-11T09:20:15.148Z,2.80
2023-03-11T09:22:41.745Z,9.93
2023-03-11T09:25:10.228Z,23.27
2023-03-11T09:27:36.822Z,1.80
2023-03-11T09:30:05.386Z,33.08
2023-03-11T09:32:32.074Z,29.27
2023-03-11T09:35:00.186Z,6.10
2023-03-11T09:37:29.764Z,8.63
2023-03-11T09:39:56.509Z,2.15
2023-03-11T09:42:48.119Z,1.00
2023-03-11T09:45:27.187Z,1.80
2023-03-11T09:48:16.790Z,1.30
2023-03-11T09:51:16.049Z,1.40
2023-03-11T09:53:45.117Z,1.38
2023-03-11T09:56:17.264Z,1.42
2023-03-11T09:58:50.685Z,1.42
2023-03-11T10:01:29.010Z,1.38
2023-03-11T10:04:00.475Z,1.10
2023-03-11T10:06:30.323Z,1.08
2023-03-11T10:09:13.429Z,1.35
2023-03-11T10:12:02.088Z,1.45
2023-03-11T10:14:39.792Z,1.00
2023-03-11T10:17:34.255Z,1.10
2023-03-11T10:20:39.163Z,1.20
2023-03-11T10:23:50.234Z,1.10
2023-03-11T10:27:05.688Z,0.75
2023-03-11T10:29:57.313Z,1.23
2023-03-11T10:35:29.948Z,1.10
2023-03-11T10:38:09.188Z,0.80
2023-03-11T10:40:39.626Z,1.10
2023-03-11T10:50:36.688Z,1.10
2023-03-11T10:56:05.215Z,1.10
2023-03-11T10:58:36.748Z,0.95
2023-03-11T11:01:25.861Z,1.23
2023-03-11T11:03:58.580Z,1.08
2023-03-11T11:16:54.274Z,6.63
2023-03-11T11:22:40.368Z,16.48
2023-03-11T11:25:38.895Z,2.10
2023-03-11T11:32:18.404Z,1.17
2023-03-11T11:35:51.673Z,2.17
2023-03-11T11:38:20.924Z,1.15
2023-03-11T11:40:47.689Z,1.25
2023-03-11T11:43:26.750Z,1.30
2023-03-11T11:45:59.034Z,1.00
2023-03-11T11:48:52.994Z,0.90
2023-03-11T11:51:34.988Z,1.50
2023-03-11T11:54:07.266Z,2.45
2023-03-11T11:56:34.032Z,0.90
2023-03-11T11:59:01.638Z,0.90
2023-03-11T12:01:43.768Z,1.10
2023-03-11T12:04:38.416Z,1.10
2023-03-11T12:07:29.521Z,0.95
2023-03-11T12:10:23.219Z,1.00
2023-03-11T12:13:17.789Z,0.77
2023-03-11T12:16:12.792Z,1.17
2023-03-11T12:18:48.521Z,1.40
2023-03-11T12:21:52.673Z,0.90
2023-03-11T12:24:55.657Z,1.20
2023-03-11T12:27:29.985Z,1.10
2023-03-11T12:30:01.853Z,1.00
2023-03-11T12:32:49.957Z,0.95
2023-03-11T12:35:21.613Z,1.20
2023-03-11T12:38:02.671Z,0.90
2023-03-11T12:41:05.273Z,1.05
2023-03-11T12:43:33.806Z,0.85
2023-03-11T12:46:03.070Z,0.90
2023-03-11T12:48:29.748Z,1.33
2023-03-11T12:50:57.792Z,2.75
2023-03-11T12:53:56.356Z,7.47
2023-03-11T12:56:44.806Z,1.15
2023-03-11T12:59:34.111Z,1.98
2023-03-11T13:02:09.815Z,1.40
2023-03-11T13:05:07.945Z,1.60
2023-03-11T13:07:57.142Z,1.05
2023-03-11T13:10:45.246Z,0.77
2023-03-11T13:13:31.159Z,0.90
2023-03-11T13:16:18.505Z,1.25
2023-03-11T13:18:47.764Z,1.30
2023-03-11T13:21:32.606Z,0.95
2023-03-11T13:24:30.316Z,0.77
2023-03-11T13:27:00.254Z,0.90
2023-03-11T13:29:46.177Z,1.17
2023-03-11T13:32:46.853Z,1.15
2023-03-11T13:35:22.735Z,0.88
2023-03-11T13:38:15.290Z,0.90
2023-03-11T13:40:44.128Z,1.05
2023-03-11T13:43:25.113Z,1.40
2023-03-11T13:46:25.976Z,6.78
2023-03-11T13:49:02.730Z,19.23
2023-03-11T13:51:38.347Z,10.23
2023-03-11T13:54:23.612Z,4.07
2023-03-11T13:56:59.572Z,2.22
2023-03-11T13:59:29.795Z,5.50
2023-03-11T14:01:59.646Z,1.23
2023-03-11T14:04:38.465Z,1.58
2023-03-11T14:07:41.517Z,1.00
2023-03-11T14:10:22.250Z,1.38
2023-03-11T14:12:49.577Z,1.20
2023-03-11T14:15:21.811Z,1.25
2023-03-11T14:17:48.959Z,0.90
2023-03-11T14:20:22.256Z,1.20
2023-03-11T14:22:54.385Z,1.27
2023-03-11T14:25:36.721Z,0.80
2023-03-11T14:28:05.888Z,0.73
2023-03-11T14:30:35.184Z,0.80
2023-03-11T14:33:35.844Z,0.90
2023-03-11T14:36:05.669Z,1.50
2023-03-11T14:38:34.656Z,1.08
2023-03-11T14:41:05.831Z,1.10
2023-03-11T14:43:37.743Z,1.50
2023-03-11T14:46:05.522Z,1.50
2023-03-11T14:48:38.178Z,1.70
2023-03-11T14:51:10.751Z,1.00
2023-03-11T14:53:46.334Z,1.17
2023-03-11T14:56:21.719Z,1.17
2023-03-11T14:59:07.272Z,1.30
2023-03-11T15:01:41.033Z,1.02
2023-03-11T15:04:33.210Z,1.10
2023-03-11T15:07:00.876Z,4.72
2023-03-11T15:09:30.496Z,12.35
2023-03-11T15:11:59.263Z,11.18
2023-03-11T15:14:32.141Z,39.42
2023-03-11T15:17:33.120Z,29.35
2023-03-11T15:20:02.522Z,7.85
2023-03-11T15:22:37.832Z,8.50
2023-03-11T15:25:18.095Z,7.50
2023-03-11T15:27:45.503Z,5.85
2023-03-11T15:30:25.504Z,4.68
2023-03-11T15:32:53.290Z,1.98
2023-03-11T15:35:26.846Z,1.58
2023-03-11T15:38:25.071Z,2.10
2023-03-11T15:40:58.150Z,1.33
2023-03-11T15:43:32.624Z,1.30
2023-03-11T15:46:04.307Z,0.93
2023-03-11T15:48:31.468Z,1.13
2023-03-11T15:51:00.732Z,1.80
2023-03-11T15:53:30.234Z,1.58
2023-03-11T15:56:14.033Z,1.60
2023-03-11T15:58:43.784Z,1.73
2023-03-11T16:01:10.608Z,1.50
2023-03-11T16:03:39.228Z,1.40
2023-03-11T16:06:06.504Z,1.07
2023-03-11T16:08:34.602Z,1.40
2023-03-11T16:11:01.376Z,1.20
2023-03-11T16:13:28.075Z,1.45
2023-03-11T16:15:54.940Z,1.40
2023-03-11T16:18:21.851Z,1.05
2023-03-11T16:20:51.727Z,1.40
2023-03-11T16:23:22.253Z,1.37
2023-03-11T16:25:49.882Z,1.40
2023-03-11T16:28:17.554Z,1.40
2023-03-11T16:30:44.340Z,1.23
2023-03-11T16:33:11.132Z,1.10
2023-03-11T16:35:38.100Z,1.23
2023-03-11T16:38:05.872Z,1.57
2023-03-11T16:40:32.796Z,1.10
2023-03-11T16:43:05.246Z,1.60
2023-03-11T16:45:32.253Z,1.43
2023-03-11T16:47:59.403Z,1.50
2023-03-11T16:50:27.142Z,1.63
2023-03-11T16:52:55.394Z,1.43
2023-03-11T16:55:22.713Z,1.20
2023-03-11T16:57:49.675Z,1.40
2023-03-11T17:00:18.055Z,1.27
2023-03-11T17:02:45.238Z,1.40
2023-03-11T17:05:12.242Z,1.07
2023-03-11T17:07:40.065Z,1.10
2023-03-11T17:10:08.667Z,1.43
2023-03-11T17:12:36.094Z,1.23
2023-03-11T17:15:03.993Z,1.90
2023-03-11T17:17:30.705Z,2.60
2023-03-11T17:19:57.395Z,3.30
2023-03-11T17:22:24.101Z,4.37
2023-03-11T17:24:50.765Z,4.17
2023-03-11T17:27:17.559Z,1.93
2023-03-11T17:29:44.248Z,1.50
2023-03-11T17:32:16.776Z,1.57
2023-03-11T17:34:43.866Z,1.53
2023-03-11T17:37:10.596Z,2.30
2023-03-11T17:39:37.416Z,3.40
2023-03-11T17:42:04.308Z,2.07
2023-03-11T17:44:44.615Z,2.10
2023-03-11T17:47:19.565Z,1.60
2023-03-11T17:49:46.690Z,1.70
2023-03-11T17:52:13.449Z,1.10
2023-03-11T17:54:40.212Z,2.00
2023-03-11T17:57:06.950Z,1.93
2023-03-11T17:59:33.974Z,1.80
2023-03-11T18:02:00.994Z,1.83
2023-03-11T18:04:27.850Z,1.60
2023-03-11T18:06:55.558Z,1.93
2023-03-11T18:09:24.603Z,1.93
2023-03-11T18:11:51.452Z,1.60
2023-03-11T18:14:17.994Z,2.60
2023-03-11T18:16:44.657Z,2.37
2023-03-11T18:19:11.362Z,2.17
2023-03-11T18:21:38.037Z,2.43
2023-03-11T18:24:05.027Z,1.67
2023-03-11T18:26:31.911Z,1.77
2023-03-11T18:29:00.140Z,1.70
2023-03-11T18:31:28.497Z,2.20
2023-03-11T18:34:01.265Z,1.80
2023-03-11T18:36:30.288Z,2.43
2023-03-11T18:38:58.596Z,1.60
2023-03-11T18:41:26.353Z,1.67
2023-03-11T18:43:54.649Z,1.30
2023-03-11T18:46:21.406Z,1.20
2023-03-11T18:48:48.029Z,1.40
2023-03-11T18:51:15.275Z,1.50
2023-03-11T18:53:43.006Z,1.50
2023-03-11T18:56:16.918Z,2.10
2023-03-11T18:58:44.331Z,5.33
2023-03-11T19:01:14.332Z,9.57
2023-03-11T19:03:48.786Z,14.07
2023-03-11T19:06:16.749Z,14.50
2023-03-11T19:08:43.664Z,19.67
2023-03-11T19:11:15.897Z,14.40
2023-03-11T19:13:47.316Z,2.73
2023-03-11T19:16:17.507Z,2.73
2023-03-11T19:18:44.641Z,5.20
2023-03-11T19:21:14.490Z,12.33
2023-03-11T19:23:41.105Z,6.70
2023-03-11T19:26:08.112Z,7.63
2023-03-11T19:28:35.284Z,4.40
2023-03-11T19:31:03.084Z,4.80
2023-03-11T19:33:29.899Z,3.73
2023-03-11T19:36:02.380Z,2.73
2023-03-11T19:38:29.981Z,2.70
2023-03-11T19:41:05.518Z,2.23
2023-03-11T19:43:32.712Z,3.13
2023-03-11T19:45:59.668Z,3.70
2023-03-11T19:48:26.554Z,4.10
2023-03-11T19:50:53.950Z,4.23
2023-03-11T19:53:22.400Z,4.77
2023-03-11T19:55:52.216Z,4.90
2023-03-11T19:58:19.603Z,3.70
2023-03-11T20:00:46.464Z,3.40
2023-03-11T20:03:14.713Z,3.43
2023-03-11T20:05:43.557Z,5.53
2023-03-11T20:08:12.148Z,4.23
2023-03-11T20:10:45.065Z,3.20
2023-03-11T20:13:12.259Z,3.57
2023-03-11T20:15:38.997Z,4.13
2023-03-11T20:18:06.296Z,2.83
2023-03-11T20:20:34.206Z,3.67
2023-03-11T20:23:01.979Z,2.80
2023-03-11T20:25:32.263Z,2.90
2023-03-11T20:28:00.210Z,2.87
2023-03-11T20:30:27.981Z,2.60
2023-03-11T20:32:54.649Z,2.47
2023-03-11T20:35:21.833Z,2.87
2023-03-11T20:37:48.734Z,2.50
2023-03-11T20:40:18.040Z,2.47
2023-03-11T20:42:47.273Z,2.83
2023-03-11T20:45:16.352Z,2.50
2023-03-11T20:47:44.495Z,2.47
2023-03-11T20:50:12.649Z,2.70
2023-03-11T20:52:39.664Z,2.30
2023-03-11T20:55:08.307Z,2.20
2023-03-11T20:57:35.320Z,3.00
2023-03-11T21:00:02.348Z,3.13
2023-03-11T21:02:30.921Z,2.83
2023-03-11T21:04:57.576Z,2.40
2023-03-11T21:07:24.442Z,3.43
2023-03-11T21:09:54.574Z,1.87
2023-03-11T21:12:21.854Z,2.33
2023-03-11T21:14:48.543Z,2.97
2023-03-11T21:17:15.675Z,3.10
2023-03-11T21:19:42.381Z,2.80
2023-03-11T21:22:09.404Z,2.50
2023-03-11T21:24:36.041Z,3.13
2023-03-11T21:27:02.611Z,2.37
2023-03-11T21:29:30.656Z,2.67
2023-03-11T21:31:57.560Z,1.80
2023-03-11T21:34:24.410Z,2.30
2023-03-11T21:36:51.227Z,2.87
2023-03-11T21:39:17.846Z,2.20
2023-03-11T21:41:44.809Z,3.27
2023-03-11T21:44:11.649Z,3.00
2023-03-11T21:46:38.536Z,2.27
2023-03-11T21:49:05.219Z,2.00
2023-03-11T21:51:31.943Z,2.00
2023-03-11T21:53:59.369Z,2.13
2023-03-11T21:56:26.385Z,2.30
2023-03-11T21:58:53.676Z,2.57
2023-03-11T22:01:20.458Z,2.90
2023-03-11T22:03:48.026Z,3.17
2023-03-11T22:08:56.888Z,2.30
2023-03-11T22:11:23.555Z,2.77
2023-03-11T22:13:52.106Z,2.57
2023-03-11T22:16:20.371Z,2.67
2023-03-11T22:18:47.866Z,2.80
2023-03-11T22:21:15.713Z,2.40
2023-03-11T22:23:43.270Z,1.97
2023-03-11T22:26:10.130Z,2.13
2023-03-11T22:28:38.986Z,2.07
2023-03-11T22:31:08.257Z,2.00
2023-03-11T22:33:35.336Z,2.63
2023-03-11T22:36:04.747Z,2.20
2023-03-11T22:38:32.682Z,2.23
2023-03-11T22:41:01.542Z,3.40
2023-03-11T22:43:28.461Z,2.53
2023-03-11T22:45:55.226Z,3.57
2023-03-11T22:48:22.195Z,2.63
2023-03-11T22:50:48.810Z,2.83
2023-03-11T22:53:15.789Z,2.83
2023-03-11T22:55:45.745Z,3.27
2023-03-11T22:58:12.855Z,2.60
2023-03-11T23:00:40.639Z,2.57
2023-03-11T23:03:07.354Z,3.30
2023-03-11T23:05:40.684Z,3.10
2023-03-11T23:08:09.071Z,2.70
2023-03-11T23:10:35.793Z,3.23
2023-03-11T23:13:11.646Z,2.77
2023-03-11T23:15:41.393Z,3.20
2023-03-11T23:18:08.571Z,2.83
2023-03-11T23:20:36.801Z,3.03
2023-03-11T23:23:04.650Z,3.53
2023-03-11T23:25:32.153Z,3.03
2023-03-11T23:28:01.468Z,2.90
2023-03-11T23:30:28.072Z,3.30
2023-03-11T23:32:54.757Z,3.53
2023-03-11T23:35:21.877Z,3.37
2023-03-11T23:37:50.183Z,3.67
2023-03-11T23:40:17.537Z,3.47
2023-03-11T23:42:44.621Z,4.03
2023-03-11T23:45:11.824Z,3.53
2023-03-11T23:47:38.504Z,3.90
2023-03-11T23:50:05.953Z,3.80
2023-03-11T23:52:33.315Z,3.87
2023-03-11T23:55:00.723Z,3.73
2023-03-11T23:57:27.434Z,4.03
2023-03-11T23:59:55.279Z,3.87
